BKPR/PRN METAR and TAF weather

Enter ICAO airport designator
Station Type Date Time Source
BKPR METAR 2019/12/14 06:00 UTC NOAA

BKPR 140600Z 15007KT 9999 SCT040 BKN080 05/03 Q0993 NOSIG RMK 17010095


Station Type Date Time Source
BKPR Decoded METAR 2019/12/14 06:00 UTC NOAA

Station name not available
Dec 14, 2019 - 01:00 AM EST / 2019.12.14 0600 UTC
Wind: from the SSE (150 degrees) at 8 MPH (7 KT):0
Visibility: greater than 7 mile(s):0
Sky conditions: mostly cloudy
Temperature: 41 F (5 C)
Dew Point: 37 F (3 C)
Relative Humidity: 86%
Pressure (altimeter): 29.32 in. Hg (0993 hPa)
ob: BKPR 140600Z 15007KT 9999 SCT040 BKN080 05/03 Q0993 NOSIG RMK 17010095
cycle: 6

Station Type Date Time Source
BKPR TAF 2019/12/14 06:30 UTC NOAA

TAF BKPR 140530Z 1406/1506 15008KT 9999 SCT040 BKN080
BECMG 1501/1503 1200 BR
BECMG 1503/1505 0150 FZFG BKN003

Example: see airport list